»·PEaware :: N744CD KMCC-KHWD

N744CD :: KMCC-KHWD

FLIGHT INFORMATION

Flight Status: Arrived
Operator: Privately registered:
United States
More flights under this callsign
Pilot: Ron B. (24463)
Aircraft: CIRRUS SR-22
(SR22)
More flights by this aircraft type
Origin: KMCC McClellan
United States
Destination: KHWD Hayward Executive
United States
More flights between these airports :: More routes between these airports
Route: +SAC V334 SUNOL
File this flight plan on PilotEdge
Remarks:
Altitude:
(Current/Filed)
6,000ft
Speed:
(Current/Filed)
168kts
Departed: 05-Nov-19 08:39 PM
Arrived: 05-Nov-19 09:15 PM
Distance/Time
Traveled:
69nm/0:36
Distance/Time
To Go:
Arrived

Flight Plot

Page will automatically refresh every two minutes.

Flight plan parsing failed; only flown route is shown


Map Options




Map Legend


Flown Route
Filed Route
Departure Airport
Arrival Airport
Navaid (VOR, NDB)
Fix

Horizontal Profiles

Position Reports

Time Latitude Longitude Heading Altitude Ground
Speed
05-Nov-19 20:38 38.681673 -121.400481 181 71ft 8kts
05-Nov-19 20:39 38.659354 -121.398314 173 798ft 116kts
05-Nov-19 20:40 38.652651 -121.397455 176 1071ft 119kts
05-Nov-19 20:41 38.619449 -121.398076 185 1359ft 162kts
05-Nov-19 20:41 38.580852 -121.402805 185 1353ft 169kts
05-Nov-19 20:43 38.534348 -121.420145 233 2196ft 145kts
05-Nov-19 20:43 38.512821 -121.453381 228 2853ft 146kts
05-Nov-19 20:44 38.485535 -121.492438 227 3613ft 145kts
05-Nov-19 20:46 38.455997 -121.534381 227 4739ft 131kts
05-Nov-19 20:46 38.431534 -121.555531 193 5555ft 133kts
05-Nov-19 20:47 38.395416 -121.566792 193 6454ft 135kts
05-Nov-19 20:48 38.357428 -121.578624 193 6923ft 156kts
05-Nov-19 20:49 38.313364 -121.592335 193 6918ft 166kts
05-Nov-19 20:50 38.268105 -121.606405 193 6917ft 167kts
05-Nov-19 20:51 38.222848 -121.620458 193 6917ft 168kts
05-Nov-19 20:52 38.177609 -121.634487 193 6917ft 168kts
05-Nov-19 20:53 38.132180 -121.648557 193 6917ft 168kts
05-Nov-19 20:54 38.086936 -121.662552 193 6917ft 168kts
05-Nov-19 20:55 38.041636 -121.676546 193 6917ft 168kts
05-Nov-19 20:56 37.996215 -121.690560 193 6917ft 168kts
05-Nov-19 20:57 37.950936 -121.704512 193 6917ft 168kts
05-Nov-19 20:58 37.905541 -121.718482 193 6917ft 168kts
05-Nov-19 20:59 37.858618 -121.732900 193 6407ft 179kts
05-Nov-19 21:00 37.809871 -121.747861 193 5710ft 181kts
05-Nov-19 21:01 37.762211 -121.767496 198 5009ft 180kts
05-Nov-19 21:02 37.715249 -121.787456 198 4300ft 170kts
05-Nov-19 21:03 37.673018 -121.805372 198 3913ft 147kts
05-Nov-19 21:04 37.635832 -121.821140 198 3917ft 138kts
05-Nov-19 21:05 37.599558 -121.836512 198 3917ft 137kts
05-Nov-19 21:06 37.563604 -121.851738 198 3917ft 136kts
05-Nov-19 21:07 37.555522 -121.894497 293 3916ft 136kts
05-Nov-19 21:08 37.574560 -121.938171 299 3357ft 138kts
05-Nov-19 21:09 37.591425 -121.975396 300 3107ft 99kts
05-Nov-19 21:10 37.603967 -122.002749 300 2797ft 103kts
05-Nov-19 21:11 37.620554 -122.038973 300 2039ft 129kts
05-Nov-19 21:12 37.638524 -122.077773 299 852ft 126kts
05-Nov-19 21:13 37.651911 -122.107717 300 230ft 81kts
05-Nov-19 21:14 37.658118 -122.119682 32 33ft 2kts
05-Nov-19 21:15 37.660683 -122.118202 10 36ft 12kts
05-Nov-19 21:16 37.660964 -122.118115 321 36ft 0kts
05-Nov-19 21:17 37.660964 -122.118115 321 36ft 0kts
05-Nov-19 21:18 37.660964 -122.118115 321 36ft 0kts
05-Nov-19 21:19 37.660964 -122.118115 321 36ft 0kts
05-Nov-19 21:20 37.660964 -122.118115 321 36ft 0kts
05-Nov-19 21:21 37.660964 -122.118115 321 36ft 0kts
05-Nov-19 21:22 37.660964 -122.118115 321 36ft 0kts
05-Nov-19 21:23 37.660964 -122.118115 321 36ft 0kts
05-Nov-19 21:24 37.660964 -122.118115 321 36ft 0kts
05-Nov-19 21:25 37.660964 -122.118115 321 36ft 0kts
05-Nov-19 21:26 37.660964 -122.118115 321 36ft 0kts
05-Nov-19 21:27 37.660964 -122.118115 321 36ft 0kts
05-Nov-19 21:28 37.660964 -122.118115 321 36ft 0kts

Navigation Log

Ident Type
Flight plan parsing failed, navigation log unavailable